sensor_id;sensor_type;location;lat;lon;timestamp;temperature;humidity
43227;DHT22;28839;52.404;9.808;2022-11-12T00:05:58;6.50;99.90
43227;DHT22;28839;52.404;9.808;2022-11-12T00:12:53;6.40;99.90
43227;DHT22;28839;52.404;9.808;2022-11-12T00:19:47;6.40;99.90
43227;DHT22;28839;52.404;9.808;2022-11-12T00:26:42;6.60;99.90
43227;DHT22;28839;52.404;9.808;2022-11-12T00:33:38;6.60;99.90
43227;DHT22;28839;52.404;9.808;2022-11-12T00:40:33;6.80;99.90
43227;DHT22;28839;52.404;9.808;2022-11-12T00:47:28;6.30;99.90
43227;DHT22;28839;52.404;9.808;2022-11-12T00:54:22;6.30;99.90
43227;DHT22;28839;52.404;9.808;2022-11-12T01:01:16;6.20;99.90
43227;DHT22;28839;52.404;9.808;2022-11-12T01:08:11;5.90;99.90
43227;DHT22;28839;52.404;9.808;2022-11-12T01:15:06;5.80;99.90
43227;DHT22;28839;52.404;9.808;2022-11-12T01:22:00;5.50;99.90
43227;DHT22;28839;52.404;9.808;2022-11-12T01:28:58;5.50;99.90
43227;DHT22;28839;52.404;9.808;2022-11-12T01:35:57;5.50;99.90
43227;DHT22;28839;52.404;9.808;2022-11-12T01:42:52;5.50;99.90
43227;DHT22;28839;52.404;9.808;2022-11-12T01:49:50;5.40;99.90
43227;DHT22;28839;52.404;9.808;2022-11-12T01:56:45;5.60;99.90
43227;DHT22;28839;52.404;9.808;2022-11-12T02:03:40;6.00;99.90
43227;DHT22;28839;52.404;9.808;2022-11-12T02:10:37;5.90;99.90
43227;DHT22;28839;52.404;9.808;2022-11-12T02:17:33;6.20;99.90
43227;DHT22;28839;52.404;9.808;2022-11-12T02:24:33;6.70;99.90
43227;DHT22;28839;52.404;9.808;2022-11-12T02:31:28;7.00;99.90
43227;DHT22;28839;52.404;9.808;2022-11-12T02:38:22;7.20;99.90
43227;DHT22;28839;52.404;9.808;2022-11-12T02:45:18;7.10;99.90
43227;DHT22;28839;52.404;9.808;2022-11-12T02:52:12;6.80;99.90
43227;DHT22;28839;52.404;9.808;2022-11-12T02:59:06;6.70;99.90
43227;DHT22;28839;52.404;9.808;2022-11-12T03:06:01;6.70;99.90
43227;DHT22;28839;52.404;9.808;2022-11-12T03:12:56;6.60;99.90
43227;DHT22;28839;52.404;9.808;2022-11-12T03:19:50;6.20;99.90
43227;DHT22;28839;52.404;9.808;2022-11-12T03:26:45;6.30;99.90
43227;DHT22;28839;52.404;9.808;2022-11-12T03:33:39;6.30;99.90
43227;DHT22;28839;52.404;9.808;2022-11-12T03:40:33;6.20;99.90
43227;DHT22;28839;52.404;9.808;2022-11-12T03:47:28;6.20;99.90
43227;DHT22;28839;52.404;9.808;2022-11-12T03:54:22;6.30;99.90
43227;DHT22;28839;52.404;9.808;2022-11-12T04:01:16;6.40;99.90
43227;DHT22;28839;52.404;9.808;2022-11-12T04:08:15;6.30;99.90
43227;DHT22;28839;52.404;9.808;2022-11-12T04:15:26;5.90;99.90
43227;DHT22;28839;52.404;9.808;2022-11-12T04:22:20;5.80;99.90
43227;DHT22;28839;52.404;9.808;2022-11-12T04:29:15;5.70;99.90
43227;DHT22;28839;52.404;9.808;2022-11-12T04:36:27;5.50;99.90
43227;DHT22;28839;52.404;9.808;2022-11-12T04:43:20;5.20;99.90
43227;DHT22;28839;52.404;9.808;2022-11-12T04:50:44;5.20;99.90
43227;DHT22;28839;52.404;9.808;2022-11-12T04:57:39;5.10;99.90
43227;DHT22;28839;52.404;9.808;2022-11-12T05:04:33;5.00;99.90
43227;DHT22;28839;52.404;9.808;2022-11-12T05:11:28;4.90;99.90
43227;DHT22;28839;52.404;9.808;2022-11-12T05:18:22;4.90;99.90
43227;DHT22;28839;52.404;9.808;2022-11-12T05:25:16;4.70;99.90
43227;DHT22;28839;52.404;9.808;2022-11-12T05:32:13;4.90;99.90
43227;DHT22;28839;52.404;9.808;2022-11-12T05:39:07;4.70;99.90
43227;DHT22;28839;52.404;9.808;2022-11-12T05:46:01;4.70;99.90
43227;DHT22;28839;52.404;9.808;2022-11-12T05:52:56;4.50;99.90
43227;DHT22;28839;52.404;9.808;2022-11-12T05:59:50;4.70;99.90
43227;DHT22;28839;52.404;9.808;2022-11-12T06:06:44;4.60;99.90
43227;DHT22;28839;52.404;9.808;2022-11-12T06:13:39;4.50;99.90
43227;DHT22;28839;52.404;9.808;2022-11-12T06:20:34;4.50;99.90
43227;DHT22;28839;52.404;9.808;2022-11-12T06:27:28;4.60;99.90
43227;DHT22;28839;52.404;9.808;2022-11-12T06:34:23;4.50;99.90
43227;DHT22;28839;52.404;9.808;2022-11-12T06:41:17;4.20;99.90
43227;DHT22;28839;52.404;9.808;2022-11-12T06:48:11;4.10;99.90
43227;DHT22;28839;52.404;9.808;2022-11-12T06:55:07;4.00;99.90
43227;DHT22;28839;52.404;9.808;2022-11-12T07:02:01;4.20;99.90
43227;DHT22;28839;52.404;9.808;2022-11-12T07:08:56;4.70;99.90
43227;DHT22;28839;52.404;9.808;2022-11-12T07:15:51;4.80;99.90
43227;DHT22;28839;52.404;9.808;2022-11-12T07:22:44;4.70;99.90
43227;DHT22;28839;52.404;9.808;2022-11-12T07:29:38;5.00;99.90
43227;DHT22;28839;52.404;9.808;2022-11-12T07:36:34;5.00;99.90
43227;DHT22;28839;52.404;9.808;2022-11-12T07:43:28;5.30;99.90
43227;DHT22;28839;52.404;9.808;2022-11-12T07:50:22;5.40;99.90
43227;DHT22;28839;52.404;9.808;2022-11-12T07:57:17;5.60;99.90
43227;DHT22;28839;52.404;9.808;2022-11-12T08:04:11;6.20;99.90
43227;DHT22;28839;52.404;9.808;2022-11-12T08:11:05;6.80;99.90
43227;DHT22;28839;52.404;9.808;2022-11-12T08:18:00;7.40;99.90
43227;DHT22;28839;52.404;9.808;2022-11-12T08:24:54;8.10;99.90
43227;DHT22;28839;52.404;9.808;2022-11-12T08:31:48;8.70;99.90
43227;DHT22;28839;52.404;9.808;2022-11-12T08:38:44;9.30;99.90
43227;DHT22;28839;52.404;9.808;2022-11-12T08:45:40;9.70;99.90
43227;DHT22;28839;52.404;9.808;2022-11-12T08:52:34;10.00;99.90
43227;DHT22;28839;52.404;9.808;2022-11-12T08:59:29;10.20;99.90
43227;DHT22;28839;52.404;9.808;2022-11-12T09:06:23;10.50;99.90
43227;DHT22;28839;52.404;9.808;2022-11-12T09:13:17;10.80;99.90
43227;DHT22;28839;52.404;9.808;2022-11-12T09:20:13;11.00;99.90
43227;DHT22;28839;52.404;9.808;2022-11-12T09:27:07;10.90;99.90
43227;DHT22;28839;52.404;9.808;2022-11-12T09:34:01;11.20;99.90
43227;DHT22;28839;52.404;9.808;2022-11-12T09:41:09;11.30;99.90
43227;DHT22;28839;52.404;9.808;2022-11-12T09:48:09;11.70;99.90
43227;DHT22;28839;52.404;9.808;2022-11-12T09:55:12;12.00;99.90
43227;DHT22;28839;52.404;9.808;2022-11-12T10:02:21;11.90;99.90
43227;DHT22;28839;52.404;9.808;2022-11-12T10:09:21;12.40;99.90
43227;DHT22;28839;52.404;9.808;2022-11-12T10:16:30;12.60;99.90
43227;DHT22;28839;52.404;9.808;2022-11-12T10:23:41;12.70;99.90
43227;DHT22;28839;52.404;9.808;2022-11-12T10:30:36;12.60;99.90
43227;DHT22;28839;52.404;9.808;2022-11-12T10:37:36;12.70;99.90
43227;DHT22;28839;52.404;9.808;2022-11-12T10:44:33;12.70;99.90
43227;DHT22;28839;52.404;9.808;2022-11-12T10:51:30;12.70;99.90
43227;DHT22;28839;52.404;9.808;2022-11-12T10:58:24;12.70;99.90
43227;DHT22;28839;52.404;9.808;2022-11-12T11:05:30;12.90;99.90
43227;DHT22;28839;52.404;9.808;2022-11-12T11:12:26;13.10;99.90
43227;DHT22;28839;52.404;9.808;2022-11-12T11:19:20;13.30;99.90
43227;DHT22;28839;52.404;9.808;2022-11-12T11:26:30;13.30;99.90
43227;DHT22;28839;52.404;9.808;2022-11-12T11:33:37;13.20;99.90
43227;DHT22;28839;52.404;9.808;2022-11-12T11:40:37;13.40;99.90
43227;DHT22;28839;52.404;9.808;2022-11-12T11:47:38;13.20;99.90
43227;DHT22;28839;52.404;9.808;2022-11-12T11:54:50;13.50;99.90
43227;DHT22;28839;52.404;9.808;2022-11-12T12:02:04;13.60;99.90
43227;DHT22;28839;52.404;9.808;2022-11-12T12:09:20;13.50;99.90
43227;DHT22;28839;52.404;9.808;2022-11-12T12:16:34;13.40;99.90
43227;DHT22;28839;52.404;9.808;2022-11-12T12:23:34;13.20;99.90
43227;DHT22;28839;52.404;9.808;2022-11-12T12:30:34;13.10;99.90
43227;DHT22;28839;52.404;9.808;2022-11-12T12:37:34;13.10;99.90
43227;DHT22;28839;52.404;9.808;2022-11-12T12:44:39;13.00;99.90
43227;DHT22;28839;52.404;9.808;2022-11-12T12:51:54;13.00;99.90
43227;DHT22;28839;52.404;9.808;2022-11-12T12:58:48;12.90;99.90
43227;DHT22;28839;52.404;9.808;2022-11-12T13:05:43;12.90;99.90
43227;DHT22;28839;52.404;9.808;2022-11-12T13:13:22;12.90;99.90
43227;DHT22;28839;52.404;9.808;2022-11-12T13:20:38;13.00;99.90
43227;DHT22;28839;52.404;9.808;2022-11-12T13:28:07;12.80;99.90
43227;DHT22;28839;52.404;9.808;2022-11-12T13:35:19;12.90;99.90
43227;DHT22;28839;52.404;9.808;2022-11-12T13:42:16;13.10;99.90
43227;DHT22;28839;52.404;9.808;2022-11-12T13:49:29;12.90;99.90
43227;DHT22;28839;52.404;9.808;2022-11-12T13:56:26;12.90;99.90
43227;DHT22;28839;52.404;9.808;2022-11-12T14:03:21;13.10;99.90
43227;DHT22;28839;52.404;9.808;2022-11-12T14:10:28;12.80;99.90
43227;DHT22;28839;52.404;9.808;2022-11-12T14:17:33;12.80;99.90
43227;DHT22;28839;52.404;9.808;2022-11-12T14:24:31;12.70;99.90
43227;DHT22;28839;52.404;9.808;2022-11-12T14:31:27;12.40;99.90
43227;DHT22;28839;52.404;9.808;2022-11-12T14:38:23;12.20;99.90
43227;DHT22;28839;52.404;9.808;2022-11-12T14:45:20;12.00;99.90
43227;DHT22;28839;52.404;9.808;2022-11-12T14:52:17;11.80;99.90
43227;DHT22;28839;52.404;9.808;2022-11-12T14:59:15;11.50;99.90
43227;DHT22;28839;52.404;9.808;2022-11-12T15:06:10;11.40;99.90
43227;DHT22;28839;52.404;9.808;2022-11-12T15:13:06;11.10;99.90
43227;DHT22;28839;52.404;9.808;2022-11-12T15:20:02;10.70;99.90
43227;DHT22;28839;52.404;9.808;2022-11-12T15:26:58;10.60;99.90
43227;DHT22;28839;52.404;9.808;2022-11-12T15:33:54;10.30;99.90
43227;DHT22;28839;52.404;9.808;2022-11-12T15:41:20;10.00;99.90
43227;DHT22;28839;52.404;9.808;2022-11-12T15:48:15;9.80;99.90
43227;DHT22;28839;52.404;9.808;2022-11-12T15:55:10;9.50;99.90
43227;DHT22;28839;52.404;9.808;2022-11-12T16:02:09;9.10;99.90
43227;DHT22;28839;52.404;9.808;2022-11-12T16:09:03;8.90;99.90
43227;DHT22;28839;52.404;9.808;2022-11-12T16:15:59;8.60;99.90
43227;DHT22;28839;52.404;9.808;2022-11-12T16:22:53;8.50;99.90
43227;DHT22;28839;52.404;9.808;2022-11-12T16:29:47;8.40;99.90
43227;DHT22;28839;52.404;9.808;2022-11-12T16:36:42;8.30;99.90
43227;DHT22;28839;52.404;9.808;2022-11-12T16:43:36;8.30;99.90
43227;DHT22;28839;52.404;9.808;2022-11-12T16:50:30;8.00;99.90
43227;DHT22;28839;52.404;9.808;2022-11-12T16:57:25;7.80;99.90
43227;DHT22;28839;52.404;9.808;2022-11-12T17:04:19;7.60;99.90
43227;DHT22;28839;52.404;9.808;2022-11-12T17:11:14;7.40;99.90
43227;DHT22;28839;52.404;9.808;2022-11-12T17:18:11;7.30;99.90
43227;DHT22;28839;52.404;9.808;2022-11-12T17:25:06;7.10;99.90
43227;DHT22;28839;52.404;9.808;2022-11-12T17:32:00;7.10;99.90
43227;DHT22;28839;52.404;9.808;2022-11-12T17:38:57;6.80;99.90
43227;DHT22;28839;52.404;9.808;2022-11-12T17:45:53;6.80;99.90
43227;DHT22;28839;52.404;9.808;2022-11-12T17:52:47;6.60;99.90
43227;DHT22;28839;52.404;9.808;2022-11-12T17:59:42;6.50;99.90
43227;DHT22;28839;52.404;9.808;2022-11-12T18:06:36;6.30;99.90
43227;DHT22;28839;52.404;9.808;2022-11-12T18:13:30;6.20;99.90
43227;DHT22;28839;52.404;9.808;2022-11-12T18:20:25;6.40;99.90
43227;DHT22;28839;52.404;9.808;2022-11-12T18:27:19;6.10;99.90
43227;DHT22;28839;52.404;9.808;2022-11-12T18:34:13;6.30;99.90
43227;DHT22;28839;52.404;9.808;2022-11-12T18:41:10;5.90;99.90
43227;DHT22;28839;52.404;9.808;2022-11-12T18:48:05;5.90;99.90
43227;DHT22;28839;52.404;9.808;2022-11-12T18:54:59;5.70;99.90
43227;DHT22;28839;52.404;9.808;2022-11-12T19:01:55;5.70;99.90
43227;DHT22;28839;52.404;9.808;2022-11-12T19:08:50;5.50;99.90
43227;DHT22;28839;52.404;9.808;2022-11-12T19:15:44;5.40;99.90
43227;DHT22;28839;52.404;9.808;2022-11-12T19:22:39;5.30;99.90
43227;DHT22;28839;52.404;9.808;2022-11-12T19:29:33;5.10;99.90
43227;DHT22;28839;52.404;9.808;2022-11-12T19:36:27;5.20;99.90
43227;DHT22;28839;52.404;9.808;2022-11-12T19:43:23;5.20;99.90
43227;DHT22;28839;52.404;9.808;2022-11-12T19:50:17;5.30;99.90
43227;DHT22;28839;52.404;9.808;2022-11-12T19:57:11;5.10;99.90
43227;DHT22;28839;52.404;9.808;2022-11-12T20:04:06;4.80;99.90
43227;DHT22;28839;52.404;9.808;2022-11-12T20:11:00;5.10;99.90
43227;DHT22;28839;52.404;9.808;2022-11-12T20:17:54;5.10;99.90
43227;DHT22;28839;52.404;9.808;2022-11-12T20:24:52;5.00;99.90
43227;DHT22;28839;52.404;9.808;2022-11-12T20:31:46;5.00;99.90
43227;DHT22;28839;52.404;9.808;2022-11-12T20:38:42;5.00;99.90
43227;DHT22;28839;52.404;9.808;2022-11-12T20:45:37;5.00;99.90
43227;DHT22;28839;52.404;9.808;2022-11-12T20:52:31;4.90;99.90
43227;DHT22;28839;52.404;9.808;2022-11-12T20:59:25;4.90;99.90
43227;DHT22;28839;52.404;9.808;2022-11-12T21:06:23;4.90;99.90
43227;DHT22;28839;52.404;9.808;2022-11-12T21:13:17;4.90;99.90
43227;DHT22;28839;52.404;9.808;2022-11-12T21:20:12;4.70;99.90
43227;DHT22;28839;52.404;9.808;2022-11-12T21:27:07;4.80;99.90
43227;DHT22;28839;52.404;9.808;2022-11-12T21:34:02;5.00;99.90
43227;DHT22;28839;52.404;9.808;2022-11-12T21:41:03;4.90;99.90
43227;DHT22;28839;52.404;9.808;2022-11-12T21:47:58;5.00;99.90
43227;DHT22;28839;52.404;9.808;2022-11-12T21:54:52;5.00;99.90
43227;DHT22;28839;52.404;9.808;2022-11-12T22:01:46;5.10;99.90
43227;DHT22;28839;52.404;9.808;2022-11-12T22:08:42;5.20;99.90
43227;DHT22;28839;52.404;9.808;2022-11-12T22:15:36;5.40;99.90
43227;DHT22;28839;52.404;9.808;2022-11-12T22:22:29;5.40;99.90
43227;DHT22;28839;52.404;9.808;2022-11-12T22:29:25;5.30;99.90
43227;DHT22;28839;52.404;9.808;2022-11-12T22:36:20;5.30;99.90
43227;DHT22;28839;52.404;9.808;2022-11-12T22:43:14;5.30;99.90
43227;DHT22;28839;52.404;9.808;2022-11-12T22:50:10;5.30;99.90
43227;DHT22;28839;52.404;9.808;2022-11-12T22:57:04;5.30;99.90
43227;DHT22;28839;52.404;9.808;2022-11-12T23:03:59;5.40;99.90
43227;DHT22;28839;52.404;9.808;2022-11-12T23:10:55;5.50;99.90
43227;DHT22;28839;52.404;9.808;2022-11-12T23:17:51;5.50;99.90
43227;DHT22;28839;52.404;9.808;2022-11-12T23:24:45;5.50;99.90
43227;DHT22;28839;52.404;9.808;2022-11-12T23:31:41;5.50;99.90
43227;DHT22;28839;52.404;9.808;2022-11-12T23:38:34;5.40;99.90
43227;DHT22;28839;52.404;9.808;2022-11-12T23:45:28;5.40;99.90
43227;DHT22;28839;52.404;9.808;2022-11-12T23:52:23;5.30;99.90
43227;DHT22;28839;52.404;9.808;2022-11-12T23:59:17;5.20;99.90
